createdAt,value
2023-04-23T00:00:41.035Z,27.25
2023-04-23T00:03:13.176Z,26.52
2023-04-23T00:05:46.304Z,25.70
2023-04-23T00:08:18.134Z,26.00
2023-04-23T00:10:47.098Z,26.05
2023-04-23T00:13:21.931Z,25.55
2023-04-23T00:15:52.849Z,19.52
2023-04-23T00:18:21.922Z,24.30
2023-04-23T00:20:52.203Z,26.63
2023-04-23T00:23:20.565Z,24.98
2023-04-23T00:25:50.074Z,24.00
2023-04-23T00:28:25.714Z,23.48
2023-04-23T00:30:54.920Z,25.05
2023-04-23T00:33:29.936Z,25.60
2023-04-23T00:35:59.895Z,24.67
2023-04-23T00:38:28.522Z,23.50
2023-04-23T00:41:03.214Z,24.17
2023-04-23T00:43:33.951Z,25.92
2023-04-23T00:46:05.320Z,26.40
2023-04-23T00:48:35.527Z,22.92
2023-04-23T00:51:08.518Z,23.83
2023-04-23T00:53:37.088Z,23.67
2023-04-23T00:56:08.749Z,23.75
2023-04-23T00:58:37.696Z,22.90
2023-04-23T01:01:07.499Z,23.00
2023-04-23T01:03:41.072Z,24.90
2023-04-23T01:06:13.450Z,23.52
2023-04-23T01:08:45.318Z,23.30
2023-04-23T01:11:16.267Z,22.42
2023-04-23T01:13:47.013Z,23.85
2023-04-23T01:16:22.267Z,24.15
2023-04-23T01:18:53.927Z,23.63
2023-04-23T01:21:25.041Z,23.23
2023-04-23T01:23:56.318Z,23.52
2023-04-23T01:26:25.798Z,23.27
2023-04-23T01:28:57.498Z,23.70
2023-04-23T01:31:26.321Z,24.27
2023-04-23T01:33:56.631Z,24.63
2023-04-23T01:36:28.581Z,24.83
2023-04-23T01:39:00.683Z,23.77
2023-04-23T01:41:34.263Z,23.67
2023-04-23T01:44:05.560Z,22.60
2023-04-23T01:46:34.464Z,20.10
2023-04-23T01:49:04.745Z,14.65
2023-04-23T01:51:34.856Z,11.60
2023-04-23T01:54:04.963Z,10.65
2023-04-23T01:56:35.539Z,8.77
2023-04-23T01:59:04.337Z,8.90
2023-04-23T02:01:44.563Z,7.03
2023-04-23T02:04:16.458Z,5.13
2023-04-23T02:06:47.820Z,4.80
2023-04-23T02:09:18.953Z,4.22
2023-04-23T02:11:52.762Z,3.50
2023-04-23T02:14:21.497Z,2.90
2023-04-23T02:16:51.797Z,2.90
2023-04-23T02:19:20.571Z,2.95
2023-04-23T02:21:59.121Z,2.90
2023-04-23T02:24:32.487Z,3.00
2023-04-23T02:27:07.442Z,3.10
2023-04-23T02:29:37.152Z,2.60
2023-04-23T02:32:05.793Z,3.00
2023-04-23T02:34:34.217Z,3.08
2023-04-23T02:37:05.209Z,2.95
2023-04-23T02:39:35.168Z,3.30
2023-04-23T02:42:06.055Z,3.05
2023-04-23T02:44:34.604Z,3.00
2023-04-23T02:47:03.567Z,3.00
2023-04-23T02:49:32.187Z,3.42
2023-04-23T02:52:01.830Z,3.25
2023-04-23T02:54:34.791Z,3.28
2023-04-23T02:57:03.460Z,3.30
2023-04-23T02:59:33.676Z,3.60
2023-04-23T03:02:02.432Z,3.50
2023-04-23T03:04:31.040Z,3.50
2023-04-23T03:06:59.716Z,3.40
2023-04-23T03:09:30.088Z,4.05
2023-04-23T03:12:02.111Z,3.70
2023-04-23T03:14:31.764Z,3.70
2023-04-23T03:17:02.676Z,3.80
2023-04-23T03:19:31.152Z,4.20
2023-04-23T03:21:59.848Z,4.20
2023-04-23T03:24:28.150Z,4.32
2023-04-23T03:26:58.988Z,4.63
2023-04-23T03:29:35.320Z,4.65
2023-04-23T03:32:05.700Z,3.95
2023-04-23T03:34:38.162Z,4.40
2023-04-23T03:37:20.041Z,4.32
2023-04-23T03:39:51.435Z,4.28
2023-04-23T03:42:20.947Z,4.50
2023-04-23T03:44:50.848Z,4.53
2023-04-23T03:47:19.662Z,4.25
2023-04-23T03:49:49.162Z,4.40
2023-04-23T03:52:23.726Z,4.55
2023-04-23T03:54:52.601Z,4.20
2023-04-23T03:57:22.989Z,4.38
2023-04-23T04:00:10.361Z,4.00
2023-04-23T04:02:49.110Z,4.35
2023-04-23T04:05:19.073Z,4.32
2023-04-23T04:07:47.550Z,4.43
2023-04-23T04:10:17.507Z,4.32
2023-04-23T04:12:48.072Z,4.78
2023-04-23T04:15:22.322Z,4.95
2023-04-23T04:17:53.123Z,4.90
2023-04-23T04:20:22.060Z,5.35
2023-04-23T04:22:51.972Z,6.13
2023-04-23T04:25:29.319Z,5.80
2023-04-23T04:27:58.579Z,5.60
2023-04-23T04:30:31.225Z,6.03
2023-04-23T04:33:00.394Z,6.75
2023-04-23T04:35:29.229Z,6.70
2023-04-23T04:37:59.043Z,6.68
2023-04-23T04:40:30.759Z,6.72
2023-04-23T04:43:01.055Z,7.00
2023-04-23T04:45:37.148Z,7.43
2023-04-23T04:48:05.966Z,7.05
2023-04-23T04:50:34.332Z,7.80
2023-04-23T04:53:03.796Z,8.20
2023-04-23T04:55:32.185Z,8.68
2023-04-23T04:58:00.605Z,9.00
2023-04-23T05:00:30.725Z,9.43
2023-04-23T05:03:01.277Z,9.73
2023-04-23T05:05:31.506Z,10.18
2023-04-23T05:08:02.527Z,10.88
2023-04-23T05:10:33.185Z,12.35
2023-04-23T05:13:02.644Z,13.02
2023-04-23T05:15:31.753Z,14.50
2023-04-23T05:18:08.361Z,15.50
2023-04-23T05:20:39.356Z,16.13
2023-04-23T05:23:08.406Z,16.55
2023-04-23T05:25:37.317Z,16.65
2023-04-23T05:28:05.905Z,17.27
2023-04-23T05:30:34.569Z,18.38
2023-04-23T05:33:03.216Z,19.02
2023-04-23T05:35:33.443Z,19.63
2023-04-23T05:38:03.310Z,19.88
2023-04-23T05:40:32.048Z,20.77
2023-04-23T05:43:01.199Z,22.05
2023-04-23T05:45:32.300Z,22.67
2023-04-23T05:48:01.690Z,22.33
2023-04-23T05:50:37.994Z,22.05
2023-04-23T05:53:07.026Z,23.58
2023-04-23T05:55:38.929Z,22.63
2023-04-23T05:58:07.246Z,24.33
2023-04-23T06:00:37.144Z,24.33
2023-04-23T06:03:06.442Z,24.98
2023-04-23T06:05:38.435Z,25.20
2023-04-23T06:08:13.050Z,25.30
2023-04-23T06:10:41.876Z,26.08
2023-04-23T06:13:12.648Z,24.67
2023-04-23T06:15:41.308Z,24.42
2023-04-23T06:18:12.312Z,23.58
2023-04-23T06:20:42.910Z,22.75
2023-04-23T06:23:15.401Z,22.67
2023-04-23T06:25:44.007Z,21.83
2023-04-23T06:28:15.117Z,21.13
2023-04-23T06:30:43.824Z,20.60
2023-04-23T06:33:14.577Z,20.05
2023-04-23T06:35:47.161Z,19.33
2023-04-23T06:38:19.043Z,18.92
2023-04-23T06:40:49.697Z,18.35
2023-04-23T06:43:18.358Z,17.45
2023-04-23T06:45:47.005Z,17.77
2023-04-23T06:48:17.023Z,18.30
2023-04-23T06:50:47.767Z,18.02
2023-04-23T06:53:17.325Z,17.33
2023-04-23T06:55:46.034Z,17.10
2023-04-23T06:58:16.025Z,16.85
2023-04-23T07:00:47.973Z,17.65
2023-04-23T07:03:17.003Z,17.27
2023-04-23T07:05:52.888Z,17.33
2023-04-23T07:08:22.712Z,17.23
2023-04-23T07:10:52.452Z,17.30
2023-04-23T07:13:22.318Z,17.58
2023-04-23T07:15:57.182Z,17.98
2023-04-23T07:18:27.158Z,17.77
2023-04-23T07:20:59.195Z,18.00
2023-04-23T07:23:29.483Z,17.17
2023-04-23T07:25:57.837Z,15.73
2023-04-23T07:28:26.460Z,14.90
2023-04-23T07:30:55.041Z,15.75
2023-04-23T07:33:31.078Z,15.10
2023-04-23T07:36:01.010Z,15.63
2023-04-23T07:38:30.882Z,14.80
2023-04-23T07:40:59.407Z,14.52
2023-04-23T07:43:28.915Z,14.55
2023-04-23T07:45:57.700Z,14.27
2023-04-23T07:48:27.831Z,13.27
2023-04-23T07:50:57.181Z,14.15
2023-04-23T07:53:29.415Z,14.88
2023-04-23T07:56:04.028Z,15.25
2023-04-23T07:58:33.183Z,14.43
2023-04-23T08:01:03.792Z,14.23
2023-04-23T08:03:32.904Z,13.70
2023-04-23T08:06:04.919Z,14.30
2023-04-23T08:08:36.159Z,13.75
2023-04-23T08:11:04.850Z,14.45
2023-04-23T08:13:33.350Z,14.45
2023-04-23T08:16:02.007Z,13.50
2023-04-23T08:18:30.973Z,13.25
2023-04-23T08:21:00.415Z,14.98
2023-04-23T08:23:29.396Z,14.18
2023-04-23T08:25:59.563Z,14.38
2023-04-23T08:28:28.147Z,13.68
2023-04-23T08:30:57.657Z,13.23
2023-04-23T08:33:26.039Z,12.57
2023-04-23T08:35:55.073Z,13.68
2023-04-23T08:38:23.871Z,13.70
2023-04-23T08:40:58.122Z,12.15
2023-04-23T08:43:34.026Z,12.85
2023-04-23T08:46:05.884Z,11.80
2023-04-23T08:48:36.158Z,12.50
2023-04-23T08:51:07.062Z,12.23
2023-04-23T08:53:39.553Z,11.77
2023-04-23T08:56:10.233Z,11.02
2023-04-23T08:58:41.284Z,11.23
2023-04-23T09:01:11.391Z,11.57
2023-04-23T09:03:43.724Z,11.48
2023-04-23T09:06:12.502Z,10.52
2023-04-23T09:08:41.112Z,10.93
2023-04-23T09:11:10.838Z,9.38
2023-04-23T09:13:41.780Z,9.40
2023-04-23T09:16:10.928Z,10.43
2023-04-23T09:18:40.539Z,9.82
2023-04-23T09:21:09.201Z,10.70
2023-04-23T09:23:41.558Z,8.93
2023-04-23T09:26:10.294Z,8.73
2023-04-23T09:28:41.675Z,9.32
2023-04-23T09:31:10.594Z,8.82
2023-04-23T09:33:39.144Z,9.23
2023-04-23T09:36:11.958Z,8.30
2023-04-23T09:38:42.933Z,9.10
2023-04-23T09:41:23.418Z,8.68
2023-04-23T09:43:54.913Z,7.97
2023-04-23T09:46:38.273Z,8.65
2023-04-23T09:49:07.976Z,8.32
2023-04-23T09:51:39.777Z,8.30
2023-04-23T09:54:14.412Z,7.93
2023-04-23T09:56:43.434Z,8.95
2023-04-23T09:59:46.715Z,9.15
2023-04-23T10:02:16.844Z,8.63
2023-04-23T10:04:47.107Z,8.70
2023-04-23T10:07:20.273Z,9.13
2023-04-23T10:09:49.515Z,9.70
2023-04-23T10:14:54.619Z,9.82
2023-04-23T10:17:23.116Z,9.73
2023-04-23T10:19:53.405Z,9.48
2023-04-23T10:22:24.410Z,9.45
2023-04-23T10:24:58.807Z,9.13
2023-04-23T10:27:44.633Z,8.82
2023-04-23T10:30:22.315Z,7.88
2023-04-23T10:32:51.761Z,7.45
2023-04-23T10:35:20.584Z,8.23
2023-04-23T10:37:51.244Z,8.25
2023-04-23T10:40:23.389Z,6.32
2023-04-23T10:42:52.753Z,7.43
2023-04-23T10:45:25.243Z,8.13
2023-04-23T10:47:56.798Z,8.20
2023-04-23T10:50:27.046Z,8.40
2023-04-23T10:52:58.533Z,8.63
2023-04-23T10:55:30.121Z,7.90
2023-04-23T10:58:06.122Z,7.10
2023-04-23T11:00:47.407Z,6.07
2023-04-23T11:03:33.458Z,6.45
2023-04-23T11:06:05.872Z,6.30
2023-04-23T11:08:37.073Z,6.38
2023-04-23T11:11:10.198Z,6.80
2023-04-23T11:13:54.320Z,7.10
2023-04-23T11:16:25.352Z,7.25
2023-04-23T11:18:58.376Z,6.40
2023-04-23T11:22:03.683Z,6.60
2023-04-23T11:24:33.623Z,7.20
2023-04-23T11:27:02.965Z,6.75
2023-04-23T11:29:34.659Z,6.85
2023-04-23T11:32:05.869Z,7.28
2023-04-23T11:34:38.220Z,7.35
2023-04-23T11:37:07.242Z,7.10
2023-04-23T11:39:36.156Z,7.85
2023-04-23T11:42:06.881Z,8.05
2023-04-23T11:44:35.686Z,7.15
2023-04-23T11:47:06.426Z,7.78
2023-04-23T11:49:34.677Z,6.80
2023-04-23T11:52:03.169Z,6.97
2023-04-23T11:54:31.998Z,6.53
2023-04-23T11:57:00.882Z,6.57
2023-04-23T11:59:29.904Z,6.05
2023-04-23T12:02:00.068Z,6.50
2023-04-23T12:04:32.461Z,6.70
2023-04-23T12:07:05.790Z,7.00
2023-04-23T12:09:39.358Z,7.18
2023-04-23T12:12:07.983Z,7.03
2023-04-23T12:14:36.308Z,6.70
2023-04-23T12:17:11.794Z,7.28
2023-04-23T12:19:45.165Z,6.72
2023-04-23T12:22:13.768Z,6.90
2023-04-23T12:24:51.719Z,6.85
2023-04-23T12:27:22.830Z,7.07
2023-04-23T12:30:00.857Z,6.55
2023-04-23T12:32:29.762Z,6.50
2023-04-23T12:35:00.593Z,6.90
2023-04-23T12:37:32.010Z,5.93
2023-04-23T12:40:01.060Z,5.60
2023-04-23T12:42:29.806Z,5.45
2023-04-23T12:45:07.824Z,4.85
2023-04-23T12:47:36.989Z,5.40
2023-04-23T12:50:08.700Z,5.68
2023-04-23T12:52:38.351Z,6.07
2023-04-23T12:55:07.800Z,5.82
2023-04-23T12:57:36.574Z,5.90
2023-04-23T13:00:06.316Z,6.18
2023-04-23T13:02:34.822Z,6.03
2023-04-23T13:05:03.314Z,5.30
2023-04-23T13:07:33.218Z,5.40
2023-04-23T13:10:01.877Z,5.25
2023-04-23T13:12:30.658Z,6.30
2023-04-23T13:15:00.146Z,6.43
2023-04-23T13:17:28.709Z,6.75
2023-04-23T13:19:58.540Z,8.02
2023-04-23T13:22:29.315Z,7.88
2023-04-23T13:25:00.598Z,7.45
2023-04-23T13:27:31.247Z,6.90
2023-04-23T13:30:00.192Z,6.82
2023-04-23T13:32:32.459Z,6.45
2023-04-23T13:35:05.484Z,7.05
2023-04-23T13:37:34.267Z,6.50
2023-04-23T13:40:04.563Z,7.78
2023-04-23T13:42:34.485Z,7.15
2023-04-23T13:45:05.241Z,6.88
2023-04-23T13:47:35.245Z,7.03
2023-04-23T13:50:07.006Z,5.78
2023-04-23T13:52:35.414Z,5.72
2023-04-23T13:55:07.983Z,6.32
2023-04-23T13:57:36.361Z,5.95
2023-04-23T14:00:05.673Z,6.20
2023-04-23T14:02:49.045Z,5.85
2023-04-23T14:05:18.164Z,5.68
2023-04-23T14:07:46.656Z,5.80
2023-04-23T14:10:16.939Z,5.90
2023-04-23T14:12:46.084Z,5.57
2023-04-23T14:15:14.932Z,5.13
2023-04-23T14:17:44.521Z,5.10
2023-04-23T14:20:15.810Z,6.00
2023-04-23T14:22:45.196Z,5.50
2023-04-23T14:25:26.009Z,5.80
2023-04-23T14:27:57.986Z,5.55
2023-04-23T14:30:28.146Z,4.95
2023-04-23T14:32:57.468Z,5.40
2023-04-23T14:35:39.561Z,5.60
2023-04-23T14:38:11.594Z,5.28
2023-04-23T14:40:41.984Z,4.55
2023-04-23T14:43:15.502Z,4.47
2023-04-23T14:45:44.547Z,4.07
2023-04-23T14:48:12.804Z,3.92
2023-04-23T14:50:41.138Z,4.05
2023-04-23T14:53:10.820Z,4.25
2023-04-23T14:55:43.418Z,7.60
2023-04-23T14:58:12.144Z,6.32
2023-04-23T15:00:41.492Z,5.93
2023-04-23T15:03:11.876Z,6.82
2023-04-23T15:05:42.036Z,6.00
2023-04-23T15:08:10.452Z,6.68
2023-04-23T15:10:38.946Z,6.45
2023-04-23T15:13:18.525Z,6.20
2023-04-23T15:15:53.384Z,7.30
2023-04-23T15:18:21.946Z,8.35
2023-04-23T15:20:50.514Z,6.75
2023-04-23T15:23:21.534Z,5.90
2023-04-23T15:25:51.545Z,6.10
2023-04-23T15:28:21.853Z,5.28
2023-04-23T15:30:50.422Z,4.90
2023-04-23T15:33:21.812Z,4.20
2023-04-23T15:35:51.276Z,3.95
2023-04-23T15:38:20.522Z,3.90
2023-04-23T15:40:49.936Z,3.97
2023-04-23T15:43:19.103Z,3.83
2023-04-23T15:45:50.295Z,3.70
2023-04-23T15:48:19.043Z,3.63
2023-04-23T15:50:47.946Z,3.72
2023-04-23T15:53:16.554Z,3.53
2023-04-23T15:55:45.218Z,3.80
2023-04-23T15:58:14.097Z,3.78
2023-04-23T16:00:42.648Z,3.80
2023-04-23T16:03:15.717Z,4.03
2023-04-23T16:05:45.028Z,4.05
2023-04-23T16:08:14.610Z,3.50
2023-04-23T16:10:43.201Z,4.00
2023-04-23T16:13:11.900Z,4.60
2023-04-23T16:15:40.408Z,4.68
2023-04-23T16:18:13.229Z,4.68
2023-04-23T16:20:41.832Z,4.63
2023-04-23T16:23:11.867Z,4.75
2023-04-23T16:25:40.586Z,4.15
2023-04-23T16:28:09.070Z,4.68
2023-04-23T16:30:37.577Z,5.47
2023-04-23T16:33:06.777Z,6.18
2023-04-23T16:35:37.472Z,7.35
2023-04-23T16:38:06.130Z,6.30
2023-04-23T16:40:35.144Z,6.00
2023-04-23T16:43:03.408Z,5.50
2023-04-23T16:45:32.254Z,5.15
2023-04-23T16:48:00.856Z,5.03
2023-04-23T16:50:29.106Z,4.85
2023-04-23T16:52:59.882Z,5.25
2023-04-23T16:55:28.748Z,5.47
2023-04-23T16:57:57.180Z,5.40
2023-04-23T17:00:27.097Z,5.97
2023-04-23T17:02:55.763Z,5.38
2023-04-23T17:05:25.201Z,5.88
2023-04-23T17:07:54.026Z,6.40
2023-04-23T17:10:24.342Z,6.25
2023-04-23T17:12:54.528Z,6.70
2023-04-23T17:15:23.886Z,6.72
2023-04-23T17:17:53.254Z,6.55
2023-04-23T17:20:22.253Z,6.55
2023-04-23T17:22:51.201Z,6.03
2023-04-23T17:25:19.781Z,6.25
2023-04-23T17:27:49.894Z,6.93
2023-04-23T17:30:18.636Z,7.50
2023-04-23T17:32:47.221Z,10.85
2023-04-23T17:35:16.048Z,6.90
2023-04-23T17:37:44.376Z,7.43
2023-04-23T17:40:13.409Z,7.80
2023-04-23T17:42:42.032Z,7.50
2023-04-23T17:45:13.082Z,8.27
2023-04-23T17:47:41.961Z,7.50
2023-04-23T17:50:12.188Z,7.78
2023-04-23T17:52:41.927Z,7.55
2023-04-23T17:55:10.762Z,7.97
2023-04-23T17:57:39.334Z,7.32
2023-04-23T18:00:14.242Z,7.30
2023-04-23T18:02:43.172Z,7.00
2023-04-23T18:05:14.291Z,7.30
2023-04-23T18:07:43.915Z,8.05
2023-04-23T18:10:13.432Z,7.78
2023-04-23T18:12:41.891Z,7.63
2023-04-23T18:15:14.387Z,7.97
2023-04-23T18:17:44.992Z,7.88
2023-04-23T18:20:16.354Z,8.65
2023-04-23T18:22:45.417Z,10.55
2023-04-23T18:25:14.069Z,10.68
2023-04-23T18:27:43.790Z,10.15
2023-04-23T18:30:15.654Z,10.52
2023-04-23T18:32:50.286Z,9.65
2023-04-23T18:35:23.034Z,8.65
2023-04-23T18:37:56.960Z,8.05
2023-04-23T18:40:25.898Z,7.60
2023-04-23T18:42:54.660Z,6.72
2023-04-23T18:45:26.879Z,6.45
2023-04-23T18:48:00.976Z,6.95
2023-04-23T18:50:42.283Z,7.60
2023-04-23T18:53:15.057Z,7.00
2023-04-23T18:55:45.910Z,7.13
2023-04-23T18:58:19.319Z,7.95
2023-04-23T19:00:49.376Z,8.30
2023-04-23T19:03:25.908Z,9.13
2023-04-23T19:06:01.509Z,9.77
2023-04-23T19:08:32.409Z,8.30
2023-04-23T19:11:00.860Z,7.95
2023-04-23T19:13:36.445Z,7.70
2023-04-23T19:16:16.586Z,8.60
2023-04-23T19:18:53.085Z,8.52
2023-04-23T19:21:21.651Z,8.48
2023-04-23T19:23:51.930Z,7.80
2023-04-23T19:26:37.327Z,7.53
2023-04-23T19:29:08.421Z,7.05
2023-04-23T19:31:39.052Z,7.03
2023-04-23T19:34:08.465Z,6.57
2023-04-23T19:36:39.930Z,7.00
2023-04-23T19:39:08.699Z,6.60
2023-04-23T19:41:40.019Z,6.88
2023-04-23T19:44:14.324Z,7.10
2023-04-23T19:46:54.523Z,7.38
2023-04-23T19:49:56.586Z,6.90
2023-04-23T19:52:43.444Z,6.63
2023-04-23T19:55:13.506Z,6.05
2023-04-23T19:57:43.140Z,6.63
2023-04-23T20:00:15.569Z,7.05
2023-04-23T20:02:46.366Z,6.50
2023-04-23T20:05:15.195Z,6.97
2023-04-23T20:07:46.665Z,7.25
2023-04-23T20:10:17.616Z,7.88
2023-04-23T20:12:46.952Z,7.43
2023-04-23T20:15:15.702Z,6.60
2023-04-23T20:17:48.351Z,7.07
2023-04-23T20:20:18.821Z,7.00
2023-04-23T20:22:48.343Z,7.35
2023-04-23T20:25:17.325Z,6.95
2023-04-23T20:27:48.289Z,8.45
2023-04-23T20:30:20.485Z,9.80
2023-04-23T20:32:50.554Z,9.10
2023-04-23T20:35:20.064Z,8.95
2023-04-23T20:37:48.524Z,9.02
2023-04-23T20:40:17.386Z,8.63
2023-04-23T20:42:46.781Z,9.77
2023-04-23T20:45:15.253Z,10.35
2023-04-23T20:47:44.659Z,10.30
2023-04-23T20:50:15.731Z,10.30
2023-04-23T20:52:45.331Z,10.65
2023-04-23T20:55:15.050Z,14.95
2023-04-23T20:57:43.703Z,16.58
2023-04-23T21:00:14.640Z,15.50
2023-04-23T21:02:43.575Z,15.55
2023-04-23T21:05:14.968Z,17.13
2023-04-23T21:07:44.751Z,36.70
2023-04-23T21:10:13.252Z,32.28
2023-04-23T21:12:43.505Z,29.08
2023-04-23T21:15:14.057Z,31.17
2023-04-23T21:17:42.825Z,30.63
2023-04-23T21:20:12.151Z,27.52
2023-04-23T21:22:42.192Z,17.88
2023-04-23T21:25:11.268Z,13.85
2023-04-23T21:27:40.179Z,12.40
2023-04-23T21:30:19.190Z,13.32
2023-04-23T21:32:48.297Z,16.98
2023-04-23T21:35:16.698Z,21.85
2023-04-23T21:37:46.984Z,16.95
2023-04-23T21:40:15.469Z,14.18
2023-04-23T21:42:45.864Z,15.73
2023-04-23T21:45:14.944Z,12.00
2023-04-23T21:47:43.376Z,13.65
2023-04-23T21:50:13.560Z,15.70
2023-04-23T21:52:44.446Z,16.17
2023-04-23T21:55:14.717Z,15.65
2023-04-23T21:57:43.480Z,12.88
2023-04-23T22:00:14.495Z,12.00
2023-04-23T22:02:46.820Z,12.75
2023-04-23T22:05:20.268Z,12.40
2023-04-23T22:07:52.905Z,11.95
2023-04-23T22:10:24.975Z,12.63
2023-04-23T22:12:53.572Z,15.43
2023-04-23T22:15:22.260Z,14.00
2023-04-23T22:17:51.373Z,14.07
2023-04-23T22:20:23.809Z,12.40
2023-04-23T22:22:52.246Z,13.18
2023-04-23T22:25:21.058Z,11.27
2023-04-23T22:27:52.438Z,12.25
2023-04-23T22:30:22.805Z,14.00
2023-04-23T22:32:51.352Z,15.15
2023-04-23T22:35:20.157Z,14.95
2023-04-23T22:37:49.778Z,14.40
2023-04-23T22:40:19.249Z,14.40
2023-04-23T22:42:47.635Z,10.95
2023-04-23T22:45:17.914Z,10.93
2023-04-23T22:47:46.413Z,11.65
2023-04-23T22:50:14.896Z,11.25
2023-04-23T22:52:44.008Z,11.27
2023-04-23T22:55:13.134Z,11.77
2023-04-23T22:57:42.601Z,11.55
2023-04-23T23:00:13.128Z,11.70
2023-04-23T23:02:43.631Z,11.98
2023-04-23T23:05:12.091Z,13.43
2023-04-23T23:07:40.531Z,13.05
2023-04-23T23:10:10.176Z,12.70
2023-04-23T23:12:39.596Z,13.82
2023-04-23T23:15:09.825Z,13.45
2023-04-23T23:17:38.450Z,13.38
2023-04-23T23:20:10.158Z,13.93
2023-04-23T23:22:38.864Z,14.23
2023-04-23T23:25:08.305Z,14.60
2023-04-23T23:27:38.119Z,14.98
2023-04-23T23:30:09.856Z,13.82
2023-04-23T23:32:38.478Z,13.88
2023-04-23T23:35:09.520Z,13.85
2023-04-23T23:37:38.006Z,14.32
2023-04-23T23:40:08.182Z,13.50
2023-04-23T23:42:37.137Z,13.40
2023-04-23T23:45:06.430Z,14.57
2023-04-23T23:47:35.036Z,14.90
2023-04-23T23:50:03.643Z,15.18
2023-04-23T23:52:33.739Z,14.63
2023-04-23T23:55:02.054Z,13.35
2023-04-23T23:57:30.748Z,14.52
2023-04-23T23:59:59.321Z,13.95
